Mount Hood Parkdale, OR (97041)

6:15 PM PDT on September 02, 2015 (GMT -0700)
Parkdale West | | Change Station
CLOSE
Current Station
Personal Weather Station
Location: Mt Hood Parkdale, OR
Elevation: 1473 ft
Nearby Weather Stations

Elev 1473 ft 45.54 °N, 121.62 °W | Updated 7 seconds ago

Mostly Cloudy
Mostly Cloudy
62.1 °F
Feels Like 62.1 °F
N
0.0
Wind Variable Wind from West
Gusts 0.0 mph

Today
High -- | Low -- °F
--% Chance of Precip.
Yesterday
High -- | Low -- °F
Precip. -- in
6:28 AM 7:42 PM
Waning Gibbous, 75% visible
Pressure 29.87 in
Visibility 10.0 miles
Clouds Mostly Cloudy 10000 ft
Dew Point 50 °F
Humidity 65%
Rainfall 0.23 in
Snow Depth Not available.
UV 1 out of 12
Pollen .50 out of 12
Air Quality Not available.
Flu Activity Not available.
METAR KDLS 030053Z AUTO 31015G23KT 10SM BKN100 20/08 A2987 RMK AO2 SLP114 T02000078
Pressure 29.87 in
Visibility 10.0 miles
Clouds Mostly Cloudy 10000 ft
Dew Point 50 °F
Humidity 65%
Rainfall 0.23 in
Snow Depth Not available.
UV 1 out of 12
Pollen .50 out of 12
Air Quality Not available.
Flu Activity Not available.
METAR KDLS 030053Z AUTO 31015G23KT 10SM BKN100 20/08 A2987 RMK AO2 SLP114 T02000078

10-Day Weather Forecast

×

Almanac

Astronomy

Sep. 02, 2015 Rise Set
Actual Time
Civil Twilight
Nautical Twilight
Astronomical Twilight
Moon
Length of Visible Light
Length of Day
Tomorrow will be .
, % of the Moon is Illuminated

Today's Extremes

State Highs State Lows

Community

WunderPhotos

Upload Photos

1,851,863 photos uploaded!

WunderBlogs® & News

Nearby

Air Quality

  Air Quality AQ Index Pollutant
Not available.

Snow Depth

Station Depth Elevation

Earthquake Activity

City Distance Mag. Time & Date
Minimum magnitude displayed is 2.5.

Coastal Water Temperatures

Place Temperature

Stations

Nearby Weather Stations

Station Location Temp. Windchill Dew Point Humidity Wind Precip. Elev Updated Type